createdAt,value
2022-07-27T00:01:09.873Z,1.30
2022-07-27T00:03:37.896Z,1.38
2022-07-27T00:06:05.068Z,1.38
2022-07-27T00:08:32.133Z,1.40
2022-07-27T00:10:59.174Z,1.55
2022-07-27T00:13:27.013Z,1.75
2022-07-27T00:15:54.724Z,1.50
2022-07-27T00:18:22.134Z,1.52
2022-07-27T00:20:49.229Z,1.20
2022-07-27T00:23:16.166Z,1.60
2022-07-27T00:25:43.247Z,1.20
2022-07-27T00:28:10.171Z,1.30
2022-07-27T00:30:37.242Z,1.55
2022-07-27T00:33:06.003Z,1.60
2022-07-27T00:35:33.009Z,1.90
2022-07-27T00:38:01.196Z,1.90
2022-07-27T00:40:28.291Z,1.98
2022-07-27T00:42:55.331Z,2.50
2022-07-27T00:45:23.922Z,2.38
2022-07-27T00:47:54.895Z,2.42
2022-07-27T00:50:22.575Z,2.10
2022-07-27T00:52:50.721Z,2.55
2022-07-27T00:55:17.797Z,2.20
2022-07-27T00:57:53.338Z,2.28
2022-07-27T01:00:27.847Z,2.53
2022-07-27T01:02:55.161Z,2.28
2022-07-27T01:05:36.160Z,2.22
2022-07-27T01:08:06.979Z,2.35
2022-07-27T01:10:34.431Z,2.40
2022-07-27T01:13:02.253Z,2.42
2022-07-27T01:15:31.000Z,2.15
2022-07-27T01:18:02.363Z,2.28
2022-07-27T01:20:29.477Z,2.42
2022-07-27T01:22:56.568Z,2.17
2022-07-27T01:25:23.897Z,1.90
2022-07-27T01:27:51.511Z,2.20
2022-07-27T01:30:28.053Z,2.22
2022-07-27T01:33:04.889Z,2.40
2022-07-27T01:35:33.425Z,1.90
2022-07-27T01:38:00.747Z,2.50
2022-07-27T01:40:27.770Z,1.98
2022-07-27T01:42:54.776Z,2.08
2022-07-27T01:45:22.240Z,1.80
2022-07-27T01:47:49.539Z,2.00
2022-07-27T01:50:16.582Z,2.00
2022-07-27T01:52:43.757Z,1.58
2022-07-27T01:55:12.344Z,1.80
2022-07-27T01:57:39.884Z,2.15
2022-07-27T02:00:11.755Z,1.85
2022-07-27T02:02:42.517Z,1.83
2022-07-27T02:05:13.418Z,2.15
2022-07-27T02:07:42.062Z,2.33
2022-07-27T02:10:11.086Z,1.85
2022-07-27T02:12:38.679Z,2.03
2022-07-27T02:15:16.451Z,1.75
2022-07-27T02:17:45.378Z,3.13
2022-07-27T02:20:15.381Z,1.98
2022-07-27T02:22:43.913Z,2.03
2022-07-27T02:25:13.230Z,1.90
2022-07-27T02:27:42.462Z,1.80
2022-07-27T02:30:11.707Z,1.92
2022-07-27T02:32:40.646Z,2.42
2022-07-27T02:35:18.791Z,2.05
2022-07-27T02:37:49.342Z,1.90
2022-07-27T02:40:17.778Z,2.28
2022-07-27T02:42:47.111Z,2.08
2022-07-27T02:45:17.212Z,2.10
2022-07-27T02:47:45.431Z,1.92
2022-07-27T02:50:12.863Z,1.83
2022-07-27T02:52:40.738Z,1.73
2022-07-27T02:55:12.987Z,2.03
2022-07-27T02:57:41.150Z,1.60
2022-07-27T03:00:13.735Z,1.77
2022-07-27T03:02:41.039Z,1.98
2022-07-27T03:05:10.715Z,2.22
2022-07-27T03:07:37.769Z,1.75
2022-07-27T03:10:05.639Z,1.73
2022-07-27T03:12:32.588Z,1.65
2022-07-27T03:14:59.740Z,1.70
2022-07-27T03:17:26.689Z,1.92
2022-07-27T03:19:55.536Z,1.75
2022-07-27T03:22:23.575Z,1.63
2022-07-27T03:24:50.697Z,1.70
2022-07-27T03:27:17.784Z,1.80
2022-07-27T03:29:44.698Z,1.88
2022-07-27T03:32:11.626Z,1.60
2022-07-27T03:34:38.661Z,1.92
2022-07-27T03:37:05.613Z,1.83
2022-07-27T03:39:32.563Z,1.90
2022-07-27T03:41:59.536Z,1.67
2022-07-27T03:44:26.501Z,2.20
2022-07-27T03:46:53.532Z,1.30
2022-07-27T03:49:20.532Z,1.55
2022-07-27T03:51:47.512Z,1.52
2022-07-27T03:54:14.529Z,1.48
2022-07-27T03:56:41.907Z,1.75
2022-07-27T03:59:12.451Z,1.42
2022-07-27T04:01:39.731Z,1.27
2022-07-27T04:04:06.735Z,1.48
2022-07-27T04:06:34.080Z,1.20
2022-07-27T04:09:08.130Z,1.10
2022-07-27T04:11:50.759Z,1.30
2022-07-27T04:14:19.029Z,1.60
2022-07-27T04:16:47.018Z,1.85
2022-07-27T04:19:14.223Z,1.85
2022-07-27T04:21:41.713Z,1.02
2022-07-27T04:24:09.049Z,1.65
2022-07-27T04:26:36.749Z,1.48
2022-07-27T04:29:03.874Z,1.75
2022-07-27T04:31:31.588Z,1.52
2022-07-27T04:33:58.560Z,1.55
2022-07-27T04:36:25.599Z,1.45
2022-07-27T04:38:52.515Z,1.42
2022-07-27T04:41:19.496Z,1.40
2022-07-27T04:43:47.015Z,1.15
2022-07-27T04:46:15.731Z,2.33
2022-07-27T04:48:49.126Z,1.65
2022-07-27T04:51:18.666Z,1.73
2022-07-27T04:53:52.755Z,1.17
2022-07-27T04:56:26.820Z,1.27
2022-07-27T04:59:03.033Z,1.30
2022-07-27T05:01:35.014Z,1.27
2022-07-27T05:04:05.272Z,2.92
2022-07-27T05:06:33.335Z,1.70
2022-07-27T05:09:11.254Z,1.45
2022-07-27T05:11:41.148Z,1.70
2022-07-27T05:14:28.912Z,1.67
2022-07-27T05:16:57.497Z,1.15
2022-07-27T05:19:24.687Z,1.30
2022-07-27T05:22:11.103Z,1.17
2022-07-27T05:24:38.138Z,1.42
2022-07-27T05:27:05.991Z,1.73
2022-07-27T05:29:34.123Z,1.70
2022-07-27T05:32:01.137Z,1.75
2022-07-27T05:34:28.143Z,1.35
2022-07-27T05:36:57.285Z,1.20
2022-07-27T05:39:24.203Z,1.35
2022-07-27T05:41:53.296Z,1.35
2022-07-27T05:44:20.599Z,1.65
2022-07-27T05:46:49.393Z,1.48
2022-07-27T05:49:16.826Z,1.45
2022-07-27T05:51:44.123Z,1.70
2022-07-27T05:54:11.105Z,1.58
2022-07-27T05:56:38.844Z,1.38
2022-07-27T05:59:07.412Z,1.20
2022-07-27T06:01:35.025Z,1.48
2022-07-27T06:04:02.263Z,1.30
2022-07-27T06:06:48.179Z,1.30
2022-07-27T06:09:16.651Z,1.40
2022-07-27T06:11:44.114Z,1.45
2022-07-27T06:14:11.230Z,1.38
2022-07-27T06:16:38.246Z,1.67
2022-07-27T06:19:06.128Z,1.30
2022-07-27T06:21:33.054Z,1.83
2022-07-27T06:24:01.726Z,1.30
2022-07-27T06:26:29.461Z,1.30
2022-07-27T06:28:58.866Z,1.10
2022-07-27T06:31:30.110Z,1.15
2022-07-27T06:34:03.927Z,1.25
2022-07-27T06:36:35.351Z,1.02
2022-07-27T06:39:21.855Z,1.35
2022-07-27T06:41:49.020Z,1.23
2022-07-27T06:44:16.628Z,2.47
2022-07-27T06:46:43.970Z,1.08
2022-07-27T06:49:12.263Z,1.27
2022-07-27T06:51:55.237Z,1.40
2022-07-27T06:54:22.501Z,1.20
2022-07-27T06:56:49.488Z,1.30
2022-07-27T06:59:16.918Z,1.23
2022-07-27T07:01:48.498Z,1.20
2022-07-27T07:04:16.232Z,1.35
2022-07-27T07:06:44.386Z,1.55
2022-07-27T07:09:30.483Z,1.83
2022-07-27T07:11:57.910Z,1.10
2022-07-27T07:14:26.242Z,1.50
2022-07-27T07:16:53.929Z,1.58
2022-07-27T07:19:21.553Z,1.30
2022-07-27T07:21:49.021Z,1.38
2022-07-27T07:24:16.071Z,1.38
2022-07-27T07:26:43.241Z,1.33
2022-07-27T07:29:11.157Z,1.60
2022-07-27T07:31:38.391Z,1.50
2022-07-27T07:34:05.493Z,1.33
2022-07-27T07:36:32.537Z,1.50
2022-07-27T07:39:00.814Z,1.45
2022-07-27T07:41:27.828Z,1.05
2022-07-27T07:43:55.172Z,1.52
2022-07-27T07:46:22.311Z,1.23
2022-07-27T07:48:49.572Z,1.00
2022-07-27T07:51:16.706Z,1.00
2022-07-27T07:53:43.784Z,1.20
2022-07-27T07:56:10.859Z,0.95
2022-07-27T07:58:38.443Z,1.30
2022-07-27T08:01:05.871Z,1.55
2022-07-27T08:03:32.888Z,1.30
2022-07-27T08:05:59.947Z,1.10
2022-07-27T08:08:30.069Z,1.17
2022-07-27T08:10:57.931Z,1.17
2022-07-27T08:13:25.400Z,1.30
2022-07-27T08:15:53.021Z,1.27
2022-07-27T08:18:20.799Z,1.23
2022-07-27T08:20:47.811Z,1.10
2022-07-27T08:23:14.929Z,0.90
2022-07-27T08:25:42.468Z,1.23
2022-07-27T08:28:09.650Z,1.23
2022-07-27T08:30:36.788Z,1.35
2022-07-27T08:33:05.043Z,1.20
2022-07-27T08:35:34.560Z,1.08
2022-07-27T08:38:05.223Z,1.83
2022-07-27T08:40:40.440Z,1.53
2022-07-27T08:43:10.873Z,0.90
2022-07-27T08:45:53.306Z,0.88
2022-07-27T08:50:51.132Z,0.90
2022-07-27T08:53:18.800Z,0.80
2022-07-27T08:55:47.684Z,1.02
2022-07-27T08:58:16.223Z,1.23
2022-07-27T09:00:51.715Z,1.20
2022-07-27T09:03:22.144Z,1.17
2022-07-27T09:05:53.139Z,0.80
2022-07-27T09:08:24.696Z,1.08
2022-07-27T09:10:55.762Z,1.00
2022-07-27T09:13:26.719Z,0.93
2022-07-27T09:16:17.375Z,1.17
2022-07-27T09:18:45.314Z,1.23
2022-07-27T09:21:19.228Z,1.20
2022-07-27T09:23:55.622Z,0.70
2022-07-27T09:26:33.895Z,1.17
2022-07-27T09:29:16.230Z,1.05
2022-07-27T09:31:51.970Z,1.00
2022-07-27T09:34:34.488Z,1.13
2022-07-27T09:39:33.377Z,1.00
2022-07-27T09:42:02.494Z,1.13
2022-07-27T09:44:44.859Z,0.82
2022-07-27T09:47:28.127Z,1.00
2022-07-27T09:50:21.596Z,1.00
2022-07-27T09:52:48.768Z,1.13
2022-07-27T09:55:20.942Z,1.00
2022-07-27T09:57:57.687Z,1.40
2022-07-27T10:00:27.041Z,1.02
2022-07-27T10:02:55.056Z,2.25
2022-07-27T10:05:23.634Z,0.70
2022-07-27T10:07:53.599Z,0.80
2022-07-27T10:10:23.153Z,0.60
2022-07-27T10:12:55.001Z,0.80
2022-07-27T10:18:07.778Z,0.90
2022-07-27T10:20:39.592Z,1.52
2022-07-27T10:23:07.594Z,1.10
2022-07-27T10:25:38.270Z,1.20
2022-07-27T10:28:18.510Z,1.25
2022-07-27T10:30:49.345Z,1.10
2022-07-27T10:33:44.566Z,1.17
2022-07-27T10:36:31.166Z,1.50
2022-07-27T10:39:07.847Z,1.23
2022-07-27T10:41:43.824Z,1.45
2022-07-27T10:44:17.764Z,1.50
2022-07-27T10:46:52.649Z,1.23
2022-07-27T10:49:40.789Z,1.40
2022-07-27T10:52:42.183Z,1.50
2022-07-27T10:55:32.101Z,1.42
2022-07-27T10:58:21.852Z,1.67
2022-07-27T11:00:55.224Z,1.60
2022-07-27T11:03:42.417Z,1.30
2022-07-27T11:06:33.016Z,1.55
2022-07-27T11:09:53.378Z,1.90
2022-07-27T11:11:53.619Z,1.77
2022-07-27T11:14:30.929Z,1.85
2022-07-27T11:17:54.771Z,1.50
2022-07-27T11:20:13.343Z,1.50
2022-07-27T11:25:30.075Z,2.00
2022-07-27T11:27:57.074Z,1.30
2022-07-27T11:30:26.389Z,1.20
2022-07-27T11:32:54.904Z,1.30
2022-07-27T11:35:22.456Z,1.30
2022-07-27T11:38:05.983Z,1.08
2022-07-27T11:40:59.961Z,0.80
2022-07-27T11:43:40.479Z,0.98
2022-07-27T11:49:08.964Z,0.93
2022-07-27T11:51:44.039Z,0.90
2022-07-27T11:54:14.167Z,0.77
2022-07-27T11:56:45.069Z,1.13
2022-07-27T11:59:42.558Z,1.02
2022-07-27T12:02:18.307Z,0.80
2022-07-27T12:04:51.656Z,0.90
2022-07-27T12:07:32.215Z,1.15
2022-07-27T12:10:03.629Z,0.95
2022-07-27T12:12:32.609Z,0.93
2022-07-27T12:15:45.361Z,0.90
2022-07-27T12:18:09.266Z,0.93
2022-07-27T12:20:37.720Z,1.08
2022-07-27T12:23:09.165Z,0.90
2022-07-27T12:25:49.349Z,1.10
2022-07-27T12:28:25.670Z,0.90
2022-07-27T12:30:52.923Z,0.95
2022-07-27T12:33:38.586Z,0.93
2022-07-27T12:36:10.423Z,0.80
2022-07-27T12:41:07.926Z,0.50
2022-07-27T12:43:35.674Z,0.80
2022-07-27T12:46:14.052Z,0.95
2022-07-27T12:48:43.281Z,0.90
2022-07-27T12:51:11.297Z,0.68
2022-07-27T12:53:38.711Z,0.82
2022-07-27T12:56:10.346Z,0.70
2022-07-27T13:01:05.991Z,0.88
2022-07-27T13:03:33.397Z,0.85
2022-07-27T13:06:10.642Z,0.70
2022-07-27T13:08:40.995Z,0.93
2022-07-27T13:11:07.960Z,0.90
2022-07-27T13:13:35.117Z,0.90
2022-07-27T13:16:02.203Z,0.80
2022-07-27T13:18:29.220Z,0.73
2022-07-27T13:20:56.153Z,0.90
2022-07-27T13:23:23.368Z,0.85
2022-07-27T13:25:50.430Z,1.10
2022-07-27T13:28:17.582Z,0.80
2022-07-27T13:30:44.701Z,0.88
2022-07-27T13:33:12.407Z,0.80
2022-07-27T13:35:39.628Z,1.00
2022-07-27T13:38:06.568Z,0.80
2022-07-27T13:40:33.538Z,0.75
2022-07-27T13:43:00.484Z,1.17
2022-07-27T13:45:27.518Z,1.25
2022-07-27T13:47:54.655Z,0.90
2022-07-27T13:50:22.181Z,1.30
2022-07-27T13:52:49.362Z,1.15
2022-07-27T13:55:17.775Z,1.08
2022-07-27T13:57:47.079Z,1.33
2022-07-27T14:00:16.177Z,0.90
2022-07-27T14:02:49.449Z,1.25
2022-07-27T14:05:27.497Z,0.90
2022-07-27T14:07:56.251Z,0.88
2022-07-27T14:10:32.832Z,0.80
2022-07-27T14:13:08.687Z,0.95
2022-07-27T14:15:53.699Z,0.98
2022-07-27T14:18:25.341Z,0.60
2022-07-27T14:20:54.227Z,0.80
2022-07-27T14:23:21.782Z,0.70
2022-07-27T14:25:48.789Z,0.80
2022-07-27T14:28:16.227Z,0.82
2022-07-27T14:30:43.805Z,1.38
2022-07-27T14:33:10.828Z,0.98
2022-07-27T14:35:40.672Z,0.90
2022-07-27T14:38:09.836Z,0.88
2022-07-27T14:40:38.334Z,1.30
2022-07-27T14:43:06.377Z,1.02
2022-07-27T14:45:44.804Z,0.65
2022-07-27T14:48:21.427Z,1.10
2022-07-27T14:53:23.954Z,0.75
2022-07-27T14:55:51.087Z,0.80
2022-07-27T14:58:18.591Z,0.70
2022-07-27T15:00:45.996Z,0.60
2022-07-27T15:03:14.831Z,0.95
2022-07-27T15:05:49.698Z,0.90
2022-07-27T15:08:20.249Z,0.98
2022-07-27T15:10:48.576Z,0.63
2022-07-27T15:13:16.961Z,0.52
2022-07-27T15:15:44.324Z,0.70
2022-07-27T15:18:11.462Z,1.10
2022-07-27T15:20:38.484Z,0.75
2022-07-27T15:23:06.595Z,0.68
2022-07-27T15:25:34.101Z,0.70
2022-07-27T15:28:01.447Z,0.70
2022-07-27T15:30:28.708Z,0.75
2022-07-27T15:32:56.655Z,0.80
2022-07-27T15:35:24.862Z,1.00
2022-07-27T15:37:54.286Z,0.88
2022-07-27T15:40:38.586Z,0.88
2022-07-27T15:43:14.051Z,0.70
2022-07-27T15:45:45.537Z,1.08
2022-07-27T15:48:14.290Z,1.20
2022-07-27T15:50:44.716Z,1.00
2022-07-27T15:53:14.155Z,1.00
2022-07-27T15:55:43.741Z,1.30
2022-07-27T15:58:13.442Z,0.80
2022-07-27T16:00:41.637Z,1.40
2022-07-27T16:03:11.059Z,0.88
2022-07-27T16:05:41.095Z,0.90
2022-07-27T16:08:09.891Z,0.85
2022-07-27T16:10:42.194Z,0.70
2022-07-27T16:13:13.035Z,1.00
2022-07-27T16:16:02.154Z,0.90
2022-07-27T16:18:32.920Z,0.90
2022-07-27T16:21:02.639Z,0.88
2022-07-27T16:23:29.956Z,0.95
2022-07-27T16:26:07.032Z,1.08
2022-07-27T16:28:40.027Z,0.80
2022-07-27T16:31:11.245Z,0.77
2022-07-27T16:33:38.835Z,0.82
2022-07-27T16:36:08.255Z,1.05
2022-07-27T16:38:47.678Z,1.30
2022-07-27T16:41:21.812Z,1.08
2022-07-27T16:44:09.002Z,1.13
2022-07-27T16:46:48.164Z,1.20
2022-07-27T16:49:36.175Z,0.82
2022-07-27T16:52:12.092Z,0.77
2022-07-27T16:54:56.906Z,1.13
2022-07-27T16:57:24.181Z,0.90
2022-07-27T16:59:51.230Z,0.98
2022-07-27T17:02:18.804Z,0.82
2022-07-27T17:04:45.898Z,1.00
2022-07-27T17:07:14.962Z,0.93
2022-07-27T17:09:43.125Z,0.80
2022-07-27T17:12:18.153Z,0.80
2022-07-27T17:14:54.198Z,0.85
2022-07-27T17:17:21.152Z,0.85
2022-07-27T17:19:48.527Z,1.13
2022-07-27T17:22:15.434Z,1.30
2022-07-27T17:24:43.526Z,1.20
2022-07-27T17:27:11.609Z,0.77
2022-07-27T17:29:38.698Z,1.38
2022-07-27T17:32:05.926Z,0.70
2022-07-27T17:34:37.384Z,0.80
2022-07-27T17:37:08.562Z,1.23
2022-07-27T17:39:40.666Z,1.27
2022-07-27T17:42:15.663Z,0.80
2022-07-27T17:44:45.924Z,0.80
2022-07-27T17:47:13.967Z,0.90
2022-07-27T17:49:45.748Z,0.77
2022-07-27T17:52:14.760Z,0.90
2022-07-27T17:54:42.066Z,0.80
2022-07-27T17:57:09.320Z,1.05
2022-07-27T17:59:38.585Z,1.05
2022-07-27T18:02:07.111Z,1.10
2022-07-27T18:04:39.239Z,0.75
2022-07-27T18:07:08.248Z,0.90
2022-07-27T18:09:36.626Z,1.00
2022-07-27T18:12:05.459Z,0.90
2022-07-27T18:14:33.562Z,0.73
2022-07-27T18:17:06.369Z,1.02
2022-07-27T18:20:50.253Z,1.30
2022-07-27T18:32:56.260Z,2.08
2022-07-27T18:36:33.467Z,1.40
2022-07-27T18:39:57.189Z,1.40
2022-07-27T18:43:04.526Z,1.60
2022-07-27T18:49:02.788Z,1.67
2022-07-27T18:52:00.795Z,1.70
2022-07-27T18:54:52.734Z,1.80
2022-07-27T18:58:27.676Z,1.75
2022-07-27T19:01:06.043Z,1.50
2022-07-27T19:03:50.822Z,1.83
2022-07-27T19:06:52.679Z,1.55
2022-07-27T19:09:59.652Z,2.45
2022-07-27T19:13:12.533Z,2.03
2022-07-27T19:16:05.977Z,2.10
2022-07-27T19:23:15.825Z,1.52
2022-07-27T19:25:50.154Z,1.65
2022-07-27T19:28:27.976Z,1.38
2022-07-27T19:32:21.268Z,1.20
2022-07-27T19:35:16.349Z,1.23
2022-07-27T19:37:43.438Z,1.98
2022-07-27T19:40:41.592Z,1.80
2022-07-27T19:42:58.188Z,1.60
2022-07-27T19:45:25.927Z,1.85
2022-07-27T19:47:52.922Z,1.63
2022-07-27T19:50:20.096Z,1.55
2022-07-27T19:52:47.272Z,1.40
2022-07-27T19:55:14.372Z,1.27
2022-07-27T19:57:41.430Z,1.52
2022-07-27T20:00:10.270Z,2.30
2022-07-27T20:02:37.869Z,1.40
2022-07-27T20:05:05.876Z,1.70
2022-07-27T20:07:33.131Z,1.90
2022-07-27T20:10:00.517Z,1.48
2022-07-27T20:12:27.818Z,1.63
2022-07-27T20:14:54.916Z,1.60
2022-07-27T20:17:22.068Z,1.73
2022-07-27T20:19:49.570Z,1.50
2022-07-27T20:22:17.029Z,1.50
2022-07-27T20:24:44.097Z,1.80
2022-07-27T20:27:11.321Z,1.52
2022-07-27T20:29:39.191Z,1.77
2022-07-27T20:32:07.596Z,1.40
2022-07-27T20:34:34.878Z,1.60
2022-07-27T20:37:02.206Z,1.80
2022-07-27T20:39:29.312Z,1.95
2022-07-27T20:41:57.564Z,2.00
2022-07-27T20:44:25.115Z,1.50
2022-07-27T20:46:52.077Z,1.73
2022-07-27T20:49:20.628Z,2.08
2022-07-27T20:51:47.757Z,1.73
2022-07-27T20:54:14.834Z,2.30
2022-07-27T20:56:41.963Z,1.92
2022-07-27T20:59:16.689Z,1.83
2022-07-27T21:01:44.776Z,2.65
2022-07-27T21:04:11.906Z,2.10
2022-07-27T21:06:38.985Z,2.17
2022-07-27T21:09:07.486Z,2.10
2022-07-27T21:11:34.670Z,2.25
2022-07-27T21:14:01.659Z,2.45
2022-07-27T21:16:29.074Z,2.22
2022-07-27T21:18:58.437Z,2.30
2022-07-27T21:21:27.638Z,2.15
2022-07-27T21:24:15.103Z,1.90
2022-07-27T21:26:48.745Z,2.30
2022-07-27T21:29:17.209Z,2.40
2022-07-27T21:31:49.453Z,2.13
2022-07-27T21:34:20.423Z,2.30
2022-07-27T21:36:48.837Z,2.03
2022-07-27T21:39:18.060Z,2.33
2022-07-27T21:41:45.583Z,2.30
2022-07-27T21:44:13.741Z,2.45
2022-07-27T21:46:41.288Z,2.30
2022-07-27T21:49:08.452Z,2.15
2022-07-27T21:51:35.767Z,2.55
2022-07-27T21:54:02.837Z,2.33
2022-07-27T21:56:30.227Z,2.22
2022-07-27T21:58:57.465Z,2.65
2022-07-27T22:01:24.569Z,2.33
2022-07-27T22:03:52.002Z,1.90
2022-07-27T22:06:19.325Z,2.40
2022-07-27T22:08:46.281Z,2.53
2022-07-27T22:11:13.363Z,2.20
2022-07-27T22:13:40.513Z,2.30
2022-07-27T22:16:08.841Z,2.30
2022-07-27T22:18:35.952Z,2.03
2022-07-27T22:21:03.154Z,2.55
2022-07-27T22:23:30.118Z,2.30
2022-07-27T22:25:58.086Z,2.08
2022-07-27T22:28:28.206Z,1.88
2022-07-27T22:31:15.663Z,1.70
2022-07-27T22:33:44.348Z,1.85
2022-07-27T22:36:12.667Z,1.80
2022-07-27T22:38:40.040Z,1.80
2022-07-27T22:41:07.957Z,1.95
2022-07-27T22:43:35.028Z,1.70
2022-07-27T22:46:06.201Z,2.00
2022-07-27T22:48:33.381Z,1.60
2022-07-27T22:51:00.450Z,1.63
2022-07-27T22:53:27.396Z,1.88
2022-07-27T22:55:54.415Z,1.80
2022-07-27T22:58:22.506Z,1.90
2022-07-27T23:00:49.560Z,1.65
2022-07-27T23:03:16.903Z,1.60
2022-07-27T23:05:43.997Z,1.77
2022-07-27T23:08:11.039Z,2.00
2022-07-27T23:10:46.989Z,1.58
2022-07-27T23:13:19.497Z,1.35
2022-07-27T23:15:47.609Z,1.85
2022-07-27T23:18:15.405Z,1.55
2022-07-27T23:20:43.480Z,1.60
2022-07-27T23:23:16.319Z,1.60
2022-07-27T23:25:47.183Z,1.90
2022-07-27T23:28:15.261Z,1.92
2022-07-27T23:30:42.691Z,1.50
2022-07-27T23:33:09.774Z,1.60
2022-07-27T23:35:36.871Z,1.67
2022-07-27T23:38:03.985Z,1.80
2022-07-27T23:40:30.998Z,1.40
2022-07-27T23:42:58.025Z,1.90
2022-07-27T23:45:24.997Z,1.35
2022-07-27T23:47:52.027Z,1.52
2022-07-27T23:50:19.035Z,1.50
2022-07-27T23:52:45.985Z,1.65
2022-07-27T23:55:12.925Z,1.73
2022-07-27T23:57:40.053Z,1.75
